Airfield :
LOGIN :

Register | Disclaimer

   EN    FR    IT 

 










Legend :    VFR   Marginal VFR   IFR   Intensive IFR   Very Intensive IFR
Visi :
Ceiling :
>= 8 km
>= 3000ft
5 to 8 km
1000 to 3000 ft
1500m to 5 km
500 to 1000 ft
800 to 1500m
200 to 500 ft
< 800m
< 200 ft
Symbols :   Thunderstorms  Fog  Heavy snow  Heavy precipitations  Wind > 20 kt
SIGMETs :     Misc.  Thunderstorms  Icing  Turbulence  Mountain Waves  Volcanic Ashes






- Airport Elevation : 375 ft
- IATA code : MST


EHBK - Maastricht Aachen

CURRENT METAR :
  • 091455Z AUTO 27004KT 220V300 9000 -UP SCT007 BKN008 OVC009 06/06 Q1003 REDZUP BECMG 30010KT TEMPO 6000 SHRA BKN015 SCT020CB

EXPIRED METARs :
  • 091425Z AUTO 24007KT 200V280 9000 -DZ FEW007 BKN009 OVC011 06/05 Q1002 BECMG 30010KT TEMPO 6000 SHRA BKN015 SCT020CB
  • 091355Z AUTO 25008KT 210V280 9999 FEW010 BKN013 OVC016 07/05 Q1001 BECMG BKN020
  • 091325Z AUTO 25008KT 200V300 9999 FEW007 BKN008 BKN010 07/06 Q1001 BECMG BKN020
  • 091255Z AUTO 25008KT 200V310 9999 +DZRA FEW009 SCT010 BKN012 07/06 Q1001 BECMG BKN020
  • 091225Z AUTO 27009KT 230V330 9999 FEW009 SCT011 BKN013 07/06 Q1001 REDZ TEMPO 6000 -SHRA BECMG BKN020

TAF TAF EHBK
Valid from the 09 at 12:00 until the 10 at 18:00 UTC


091056Z 0912/1018 25012KT 9999 BKN020
PROB40
TEMPO 0912/0915 6000 -RA -SHRA BKN014 SCT020CB
BECMG 0915/0917 33016KT
TEMPO 0915/0918 33023G35KT 4000 SHRA RA BKN014 SCT020CB
BECMG 0919/0921 30008KT
BECMG 1009/1012 21012KT
BECMG 1015/1018 20016G26KT



MET'MAP, your aeronautical weather chart ! - Copyright ORBIFLY December 2007 - Disclaimer

ORBIFLY MET'MAP TEAM :

Programming & Development : Alexandra Zaïnal
Concept & original design : Baudouin d'Aumeries
Assistance for programming : Marc-Olivier Méhu
Technical & hardware support : Manuel Goepfert

Contact : metmap@orbifly.com




SOURCES & CREDITS :

   NOAA